Time;durP1;ratioP1;P1;durP2;ratioP2;P2;SDS_P1;SDS_P2;PMS_P1;PMS_P2;Temp;Humidity;BMP_temperature;BMP_pressure;BME280_temperature;BME280_humidity;BME280_pressure;Samples;Min_cycle;Max_cycle;Signal;HPM_P1;HPM_P2
2022/08/23 00:00:06;;;;;;;0.20;0.20;;;;;;;;;;4972414;28;20050;-83
2022/08/23 00:02:42;;;;;;;0.15;0.15;;;;;;;;;;4972476;28;20110;-82
2022/08/23 00:05:11;;;;;;;0.10;0.10;;;;;;;;;;4972259;28;20165;-81
2022/08/23 00:07:41;;;;;;;0.20;0.20;;;;;;;;;;4971984;28;20078;-81
2022/08/23 00:10:10;;;;;;;0.30;0.30;;;;;;;;;;4971166;28;20470;-81
2022/08/23 00:12:39;;;;;;;0.28;0.28;;;;;;;;;;4972103;28;20090;-83
2022/08/23 00:15:08;;;;;;;0.75;0.30;;;;;;;;;;4972099;28;20078;-82
2022/08/23 00:17:38;;;;;;;0.30;0.30;;;;;;;;;;4971541;28;20071;-82
2022/08/23 00:20:08;;;;;;;0.17;0.17;;;;;;;;;;4972280;28;20097;-82
2022/08/23 00:22:37;;;;;;;0.45;0.30;;;;;;;;;;4977913;28;20082;-81
2022/08/23 00:25:06;;;;;;;0.20;0.20;;;;;;;;;;4971036;28;20133;-82
2022/08/23 00:27:35;;;;;;;0.30;0.20;;;;;;;;;;4972139;28;20134;-84
2022/08/23 00:30:05;;;;;;;0.57;0.30;;;;;;;;;;4971419;28;20130;-83
2022/08/23 00:32:34;;;;;;;0.10;0.10;;;;;;;;;;4971766;28;20137;-81
2022/08/23 00:35:03;;;;;;;0.20;0.20;;;;;;;;;;4972659;28;20145;-82
2022/08/23 00:37:33;;;;;;;0.15;0.15;;;;;;;;;;4971963;28;20046;-83
2022/08/23 00:40:02;;;;;;;0.38;0.32;;;;;;;;;;4971418;28;20057;-83
2022/08/23 00:48:08;;;;;;;0.10;0.10;;;;;;;;;;4970518;28;20081;-84
2022/08/23 00:50:38;;;;;;;0.45;0.15;;;;;;;;;;4971273;28;20054;-82
2022/08/23 00:53:12;;;;;;;0.30;0.30;;;;;;;;;;4971659;28;20107;-81
2022/08/23 00:55:41;;;;;;;0.20;0.20;;;;;;;;;;4970631;28;20129;-81
2022/08/23 00:58:10;;;;;;;0.20;0.20;;;;;;;;;;4970507;28;20402;-81
2022/08/23 01:00:38;;;;;;;1.27;0.85;;;;;;;;;;4970824;28;20133;-82
2022/08/23 01:03:09;;;;;;;0.28;0.25;;;;;;;;;;4970914;28;20051;-81
2022/08/23 01:05:43;;;;;;;0.30;0.20;;;;;;;;;;4970684;28;20046;-82
2022/08/23 01:08:13;;;;;;;0.57;0.50;;;;;;;;;;4969330;28;20053;-81
2022/08/23 01:10:44;;;;;;;0.70;0.50;;;;;;;;;;4969989;28;20043;-82
2022/08/23 01:13:15;;;;;;;0.30;0.10;;;;;;;;;;4971060;28;20129;-81
2022/08/23 01:15:46;;;;;;;0.30;0.20;;;;;;;;;;4974771;28;20047;-83
2022/08/23 01:18:16;;;;;;;0.20;0.20;;;;;;;;;;4983076;28;20149;-81
2022/08/23 01:20:49;;;;;;;0.38;0.38;;;;;;;;;;4974829;28;20513;-83
2022/08/23 01:23:25;;;;;;;0.20;0.20;;;;;;;;;;4981240;28;20058;-82
2022/08/23 01:25:53;;;;;;;0.10;0.10;;;;;;;;;;4973744;28;20052;-82
2022/08/23 01:28:22;;;;;;;0.73;0.50;;;;;;;;;;4974428;28;20561;-81
2022/08/23 01:30:51;;;;;;;0.32;0.32;;;;;;;;;;4974700;28;20086;-82
2022/08/23 01:33:20;;;;;;;0.28;0.28;;;;;;;;;;4966165;28;20054;-81
2022/08/23 01:35:50;;;;;;;0.32;0.28;;;;;;;;;;4974804;28;20055;-82
2022/08/23 01:38:18;;;;;;;0.32;0.32;;;;;;;;;;4974020;28;20142;-82
2022/08/23 01:40:49;;;;;;;0.10;0.10;;;;;;;;;;4974064;28;20463;-81
2022/08/23 01:43:18;;;;;;;0.13;0.13;;;;;;;;;;4969247;28;20057;-81
2022/08/23 01:45:47;;;;;;;1.98;0.20;;;;;;;;;;4971908;28;20141;-81
2022/08/23 01:48:16;;;;;;;0.20;0.20;;;;;;;;;;4973810;28;20067;-83
2022/08/23 01:50:45;;;;;;;0.15;0.15;;;;;;;;;;4973935;28;20126;-82
2022/08/23 01:53:13;;;;;;;0.38;0.35;;;;;;;;;;4974426;28;20054;-83
2022/08/23 01:55:42;;;;;;;0.10;0.10;;;;;;;;;;4974311;28;20150;-81
2022/08/23 01:58:12;;;;;;;0.85;0.47;;;;;;;;;;4973117;28;20049;-81
2022/08/23 02:00:43;;;;;;;0.13;0.13;;;;;;;;;;4973714;28;20047;-82
2022/08/23 02:03:12;;;;;;;0.20;0.20;;;;;;;;;;4974217;28;20059;-82
2022/08/23 02:05:41;;;;;;;0.65;0.30;;;;;;;;;;4974332;28;20566;-82
2022/08/23 02:10:56;;;;;;;0.20;0.20;;;;;;;;;;4983856;28;20137;-82
2022/08/23 02:13:26;;;;;;;0.20;0.20;;;;;;;;;;4973111;28;20130;-81
2022/08/23 02:15:57;;;;;;;0.60;0.60;;;;;;;;;;4973222;28;20475;-81
2022/08/23 02:18:26;;;;;;;0.55;0.55;;;;;;;;;;4973516;28;20483;-82
2022/08/23 02:20:54;;;;;;;0.20;0.20;;;;;;;;;;4973797;28;20122;-81
2022/08/23 02:23:23;;;;;;;0.65;0.10;;;;;;;;;;4980543;28;20055;-82
2022/08/23 02:25:52;;;;;;;0.30;0.30;;;;;;;;;;4973201;28;20511;-81
2022/08/23 02:28:20;;;;;;;0.45;0.45;;;;;;;;;;4970032;28;20057;-82
2022/08/23 02:30:50;;;;;;;0.20;0.20;;;;;;;;;;4973790;28;20054;-82
2022/08/23 02:33:19;;;;;;;0.57;0.30;;;;;;;;;;4973697;28;20047;-81
2022/08/23 02:35:48;;;;;;;0.17;0.17;;;;;;;;;;4972169;28;20134;-82
2022/08/23 02:38:17;;;;;;;0.28;0.28;;;;;;;;;;4972882;28;20411;-83
2022/08/23 02:40:45;;;;;;;1.08;0.65;;;;;;;;;;4973174;28;20125;-82
2022/08/23 02:43:20;;;;;;;3.63;0.22;;;;;;;;;;4970931;28;20101;-81
2022/08/23 02:45:50;;;;;;;0.30;0.30;;;;;;;;;;4973471;28;20134;-81
2022/08/23 02:48:20;;;;;;;0.20;0.20;;;;;;;;;;4975231;28;20043;-83
2022/08/23 02:50:49;;;;;;;0.30;0.30;;;;;;;;;;4971800;28;20605;-82
2022/08/23 02:53:18;;;;;;;0.30;0.30;;;;;;;;;;4973145;28;20137;-81
2022/08/23 02:55:47;;;;;;;0.57;0.32;;;;;;;;;;4973311;28;20054;-83
2022/08/23 02:58:15;;;;;;;0.10;0.10;;;;;;;;;;4972236;28;20050;-82
2022/08/23 03:00:47;;;;;;;0.20;0.20;;;;;;;;;;4972681;28;20193;-83
2022/08/23 03:03:15;;;;;;;0.50;0.10;;;;;;;;;;4976093;28;20082;-83
2022/08/23 03:05:45;;;;;;;0.30;0.30;;;;;;;;;;4972933;28;20126;-83
2022/08/23 03:08:14;;;;;;;0.47;0.47;;;;;;;;;;4972567;28;20146;-81
2022/08/23 03:10:43;;;;;;;0.30;0.30;;;;;;;;;;4973201;28;20043;-81
2022/08/23 03:13:11;;;;;;;0.20;0.20;;;;;;;;;;4971020;28;20054;-82
2022/08/23 03:15:39;;;;;;;0.20;0.20;;;;;;;;;;4972233;28;20130;-81
2022/08/23 03:18:09;;;;;;;0.22;0.20;;;;;;;;;;4972296;28;20051;-81
2022/08/23 03:20:39;;;;;;;0.47;0.20;;;;;;;;;;4972662;28;20101;-81
2022/08/23 03:23:09;;;;;;;0.10;0.10;;;;;;;;;;4973010;28;20051;-82
2022/08/23 03:25:38;;;;;;;0.10;0.10;;;;;;;;;;4972254;28;20150;-82
2022/08/23 03:28:06;;;;;;;2.25;0.82;;;;;;;;;;4971246;28;20077;-81
2022/08/23 03:30:35;;;;;;;0.60;0.52;;;;;;;;;;4972269;28;20126;-81
2022/08/23 03:33:04;;;;;;;0.10;0.10;;;;;;;;;;4972821;28;20101;-82
2022/08/23 03:35:33;;;;;;;0.20;0.20;;;;;;;;;;4971611;28;20049;-81
2022/08/23 03:38:01;;;;;;;0.20;0.20;;;;;;;;;;4971367;28;20522;-81
2022/08/23 03:40:31;;;;;;;0.57;0.40;;;;;;;;;;4972324;28;20043;-81
2022/08/23 03:43:00;;;;;;;0.10;0.10;;;;;;;;;;4972221;28;20138;-81
2022/08/23 03:45:28;;;;;;;0.30;0.30;;;;;;;;;;4972087;28;20507;-83
2022/08/23 03:47:57;;;;;;;0.52;0.52;;;;;;;;;;4971774;28;20554;-81
2022/08/23 03:50:25;;;;;;;0.22;0.22;;;;;;;;;;4972124;28;20050;-82
2022/08/23 03:52:54;;;;;;;0.20;0.20;;;;;;;;;;4971022;28;20070;-83
2022/08/23 03:55:22;;;;;;;0.20;0.20;;;;;;;;;;4971934;28;20054;-80
2022/08/23 03:57:52;;;;;;;0.10;0.10;;;;;;;;;;4971731;28;20137;-81
2022/08/23 04:00:20;;;;;;;0.32;0.32;;;;;;;;;;4969923;28;20134;-81
2022/08/23 04:02:48;;;;;;;0.47;0.20;;;;;;;;;;4971866;28;20050;-82
2022/08/23 04:05:17;;;;;;;0.28;0.28;;;;;;;;;;4971476;28;20082;-81
2022/08/23 04:07:45;;;;;;;1.70;0.52;;;;;;;;;;4971409;28;20153;-83
2022/08/23 04:10:14;;;;;;;0.88;0.68;;;;;;;;;;4971636;28;20097;-81
2022/08/23 04:12:43;;;;;;;0.30;0.30;;;;;;;;;;4971639;28;20133;-82
2022/08/23 04:15:13;;;;;;;0.22;0.22;;;;;;;;;;4970161;28;20522;-82
2022/08/23 04:17:42;;;;;;;0.20;0.20;;;;;;;;;;4970958;28;20170;-83
2022/08/23 04:20:10;;;;;;;0.52;0.52;;;;;;;;;;4971459;28;20085;-81
2022/08/23 04:22:39;;;;;;;6.75;0.40;;;;;;;;;;4979143;28;20130;-81
2022/08/23 04:25:08;;;;;;;0.10;0.10;;;;;;;;;;4971500;28;20050;-81
2022/08/23 04:27:56;;;;;;;0.30;0.30;;;;;;;;;;4970115;28;20055;-83
2022/08/23 04:30:26;;;;;;;0.35;0.30;;;;;;;;;;4969514;28;20158;-81
2022/08/23 04:32:54;;;;;;;0.17;0.10;;;;;;;;;;4970681;28;20146;-81
2022/08/23 04:35:24;;;;;;;0.28;0.28;;;;;;;;;;4971594;28;20415;-79
2022/08/23 04:37:52;;;;;;;0.10;0.10;;;;;;;;;;4970766;28;20074;-81
2022/08/23 04:43:07;;;;;;;0.08;0.08;;;;;;;;;;4971464;28;20143;-84
2022/08/23 04:45:39;;;;;;;0.28;0.28;;;;;;;;;;4970586;28;20453;-83
2022/08/23 04:48:09;;;;;;;0.57;0.40;;;;;;;;;;4970914;28;20070;-82
2022/08/23 04:50:39;;;;;;;0.30;0.30;;;;;;;;;;4969847;28;20530;-81
2022/08/23 04:53:07;;;;;;;0.57;0.50;;;;;;;;;;4970761;28;20082;-81
2022/08/23 04:55:36;;;;;;;0.17;0.17;;;;;;;;;;4971160;28;20047;-82
2022/08/23 04:58:05;;;;;;;0.30;0.30;;;;;;;;;;4970585;28;20039;-82
2022/08/23 05:00:33;;;;;;;0.20;0.20;;;;;;;;;;4969824;28;20142;-81
2022/08/23 05:03:03;;;;;;;0.30;0.30;;;;;;;;;;4970928;28;20039;-82
2022/08/23 05:05:32;;;;;;;0.40;0.20;;;;;;;;;;4971478;28;20097;-80
2022/08/23 05:08:00;;;;;;;0.30;0.30;;;;;;;;;;4970231;28;20086;-81
2022/08/23 05:10:29;;;;;;;0.38;0.38;;;;;;;;;;4971490;28;20047;-83
2022/08/23 05:12:57;;;;;;;0.28;0.28;;;;;;;;;;4970740;28;20156;-81
2022/08/23 05:15:25;;;;;;;0.20;0.20;;;;;;;;;;4963726;28;20537;-81
2022/08/23 05:17:54;;;;;;;0.20;0.20;;;;;;;;;;4969589;28;20105;-81
2022/08/23 05:20:24;;;;;;;0.85;0.35;;;;;;;;;;4971423;28;20046;-81
2022/08/23 05:22:53;;;;;;;0.25;0.25;;;;;;;;;;4974535;28;20051;-82
2022/08/23 05:25:21;;;;;;;0.30;0.20;;;;;;;;;;4971239;28;20082;-81
2022/08/23 05:27:49;;;;;;;0.30;0.30;;;;;;;;;;4969946;28;20078;-83
2022/08/23 05:30:18;;;;;;;2.88;0.40;;;;;;;;;;4970362;28;20130;-83
2022/08/23 05:32:46;;;;;;;0.17;0.17;;;;;;;;;;4970481;28;20051;-82
2022/08/23 05:35:15;;;;;;;0.20;0.20;;;;;;;;;;4973024;28;20410;-81
2022/08/23 05:37:44;;;;;;;0.20;0.20;;;;;;;;;;4962137;28;20043;-83
2022/08/23 05:40:13;;;;;;;0.28;0.25;;;;;;;;;;4970532;28;20053;-82
2022/08/23 05:42:41;;;;;;;2.10;0.55;;;;;;;;;;4970597;28;20051;-81
2022/08/23 05:45:10;;;;;;;0.15;0.10;;;;;;;;;;4969638;28;20130;-81
2022/08/23 05:47:39;;;;;;;0.38;0.38;;;;;;;;;;4970548;28;20121;-81
2022/08/23 05:50:08;;;;;;;0.20;0.20;;;;;;;;;;4970244;28;20491;-81
2022/08/23 05:52:37;;;;;;;0.40;0.40;;;;;;;;;;4964963;28;20078;-81
2022/08/23 05:55:07;;;;;;;0.82;0.55;;;;;;;;;;4970141;28;20087;-83
2022/08/23 05:57:36;;;;;;;0.15;0.15;;;;;;;;;;4970100;28;20082;-82
2022/08/23 06:00:06;;;;;;;0.30;0.30;;;;;;;;;;4973703;28;20115;-82
2022/08/23 06:02:35;;;;;;;1.83;0.50;;;;;;;;;;4974142;28;20047;-82
2022/08/23 06:05:04;;;;;;;0.30;0.30;;;;;;;;;;4973765;28;20094;-81
2022/08/23 06:07:34;;;;;;;0.20;0.20;;;;;;;;;;4971625;28;20047;-81
2022/08/23 06:10:02;;;;;;;0.38;0.30;;;;;;;;;;4972050;28;20049;-81
2022/08/23 06:12:33;;;;;;;0.40;0.35;;;;;;;;;;4974112;28;20172;-81
2022/08/23 06:15:02;;;;;;;0.25;0.25;;;;;;;;;;4974261;28;20166;-82
2022/08/23 06:17:30;;;;;;;0.30;0.30;;;;;;;;;;4972557;28;20086;-81
2022/08/23 06:19:59;;;;;;;0.30;0.30;;;;;;;;;;4974034;28;20557;-82
2022/08/23 06:22:27;;;;;;;0.55;0.52;;;;;;;;;;4975835;28;20187;-81
2022/08/23 06:24:56;;;;;;;0.68;0.38;;;;;;;;;;4974292;28;20280;-81
2022/08/23 06:27:24;;;;;;;0.55;0.55;;;;;;;;;;4969140;28;20128;-81
2022/08/23 06:29:54;;;;;;;0.85;0.43;;;;;;;;;;4974842;28;20131;-81
2022/08/23 06:32:22;;;;;;;1.25;0.75;;;;;;;;;;4978012;28;20050;-82
2022/08/23 06:34:51;;;;;;;0.68;0.68;;;;;;;;;;4974578;28;20509;-81
2022/08/23 06:37:39;;;;;;;0.65;0.50;;;;;;;;;;4982923;28;20552;-81
2022/08/23 06:40:08;;;;;;;0.70;0.32;;;;;;;;;;4974710;28;20121;-81
2022/08/23 06:42:36;;;;;;;1.15;0.70;;;;;;;;;;4977603;28;20057;-82
2022/08/23 06:45:08;;;;;;;0.40;0.28;;;;;;;;;;4969539;28;20106;-82
2022/08/23 06:47:37;;;;;;;0.80;0.80;;;;;;;;;;4973611;28;20138;-84
2022/08/23 06:50:06;;;;;;;0.57;0.50;;;;;;;;;;4973944;28;20447;-83
2022/08/23 06:52:35;;;;;;;0.65;0.63;;;;;;;;;;4968841;28;20117;-83
2022/08/23 06:55:04;;;;;;;0.98;0.60;;;;;;;;;;4974214;28;20050;-81
2022/08/23 06:57:38;;;;;;;0.93;0.55;;;;;;;;;;4975547;28;20491;-81
2022/08/23 07:00:10;;;;;;;0.60;0.60;;;;;;;;;;4983245;28;20050;-85
2022/08/23 07:02:38;;;;;;;1.00;0.40;;;;;;;;;;4996242;28;20051;-82
2022/08/23 07:05:07;;;;;;;0.55;0.40;;;;;;;;;;4974005;28;20104;-82
2022/08/23 07:07:36;;;;;;;0.35;0.32;;;;;;;;;;4972931;28;20059;-82
2022/08/23 07:10:11;;;;;;;1.23;0.57;;;;;;;;;;4968348;28;20051;-81
2022/08/23 07:12:41;;;;;;;3.50;0.80;;;;;;;;;;4969974;28;20059;-81
2022/08/23 07:15:12;;;;;;;1.05;0.50;;;;;;;;;;4972689;28;20051;-81
2022/08/23 07:17:41;;;;;;;0.93;0.47;;;;;;;;;;4972646;28;20138;-82
2022/08/23 07:20:09;;;;;;;17.95;1.00;;;;;;;;;;4972568;28;20583;-82
2022/08/23 07:22:38;;;;;;;0.40;0.40;;;;;;;;;;4977369;28;20105;-81
2022/08/23 07:25:07;;;;;;;0.80;0.70;;;;;;;;;;4972713;28;20129;-82
2022/08/23 07:27:36;;;;;;;0.40;0.40;;;;;;;;;;4972140;28;20053;-82
2022/08/23 07:30:07;;;;;;;1.10;0.40;;;;;;;;;;4972741;28;20089;-82
2022/08/23 07:32:38;;;;;;;0.60;0.38;;;;;;;;;;4979732;28;20054;-83
2022/08/23 07:35:07;;;;;;;1.08;0.70;;;;;;;;;;4971852;28;20479;-82
2022/08/23 07:37:36;;;;;;;1.70;1.17;;;;;;;;;;4972216;28;20138;-83
2022/08/23 07:40:06;;;;;;;0.43;0.30;;;;;;;;;;4971967;28;20082;-82
2022/08/23 07:42:35;;;;;;;0.40;0.35;;;;;;;;;;4972433;28;20054;-81
2022/08/23 07:45:04;;;;;;;1.20;0.95;;;;;;;;;;4972277;28;20035;-82
2022/08/23 07:47:34;;;;;;;3.10;0.28;;;;;;;;;;4967480;28;20086;-82
2022/08/23 07:50:04;;;;;;;0.38;0.38;;;;;;;;;;4968861;28;20070;-81
2022/08/23 07:52:32;;;;;;;0.63;0.38;;;;;;;;;;4972479;28;20503;-81
2022/08/23 07:55:01;;;;;;;0.85;0.50;;;;;;;;;;4972291;28;20047;-82
2022/08/23 07:57:30;;;;;;;1.08;0.70;;;;;;;;;;4972294;28;20578;-82
2022/08/23 07:59:58;;;;;;;4.68;0.93;;;;;;;;;;4971919;28;20157;-83
2022/08/23 08:02:26;;;;;;;1.23;0.65;;;;;;;;;;4970516;28;20122;-81
2022/08/23 08:04:55;;;;;;;1.27;0.40;;;;;;;;;;4972684;28;20050;-82
2022/08/23 08:07:26;;;;;;;0.50;0.50;;;;;;;;;;4971112;28;20142;-82
2022/08/23 08:09:58;;;;;;;0.28;0.28;;;;;;;;;;4971361;28;20058;-82
2022/08/23 08:12:26;;;;;;;1.67;0.55;;;;;;;;;;4972204;28;20313;-82
2022/08/23 08:14:55;;;;;;;0.70;0.55;;;;;;;;;;4967637;28;20058;-83
2022/08/23 08:17:23;;;;;;;0.30;0.30;;;;;;;;;;4971017;28;20521;-83
2022/08/23 08:19:54;;;;;;;0.50;0.40;;;;;;;;;;4970967;28;20105;-83
2022/08/23 08:22:24;;;;;;;0.63;0.55;;;;;;;;;;4980306;28;20093;-83
2022/08/23 08:24:53;;;;;;;0.20;0.20;;;;;;;;;;4971558;28;20054;-82
2022/08/23 08:27:21;;;;;;;0.40;0.40;;;;;;;;;;4971375;28;20046;-81
2022/08/23 08:29:50;;;;;;;0.77;0.75;;;;;;;;;;4970108;28;20498;-82
2022/08/23 08:32:19;;;;;;;1.20;0.73;;;;;;;;;;4971108;28;20054;-82
2022/08/23 08:34:47;;;;;;;0.55;0.55;;;;;;;;;;4970412;28;20046;-84
2022/08/23 08:37:16;;;;;;;0.82;0.60;;;;;;;;;;4970571;28;20054;-82
2022/08/23 08:39:46;;;;;;;1.30;0.65;;;;;;;;;;4970650;28;20450;-82
2022/08/23 08:42:30;;;;;;;1.08;0.60;;;;;;;;;;4971289;28;20055;-82
2022/08/23 08:45:00;;;;;;;0.52;0.40;;;;;;;;;;4964552;28;20122;-83
2022/08/23 08:47:34;;;;;;;0.88;0.70;;;;;;;;;;4973516;28;20056;-82
2022/08/23 08:50:04;;;;;;;0.52;0.45;;;;;;;;;;4967158;28;20493;-85
2022/08/23 08:52:34;;;;;;;0.60;0.60;;;;;;;;;;4971731;28;20051;-82
2022/08/23 08:55:07;;;;;;;0.50;0.50;;;;;;;;;;4970750;28;20047;-83
2022/08/23 08:57:38;;;;;;;0.85;0.65;;;;;;;;;;4952176;28;20055;-83
2022/08/23 09:00:10;;;;;;;1.15;0.82;;;;;;;;;;4952819;28;20058;-83
2022/08/23 09:02:38;;;;;;;0.90;0.63;;;;;;;;;;4951810;28;20055;-82
2022/08/23 09:05:10;;;;;;;2.55;1.38;;;;;;;;;;4950993;28;20062;-83
2022/08/23 09:07:44;;;;;;;0.75;0.60;;;;;;;;;;4944062;28;20086;-84
2022/08/23 09:10:36;;;;;;;0.67;0.53;;;;;;;;;;4958157;28;20061;-82
2022/08/23 09:13:15;;;;;;;1.83;1.05;;;;;;;;;;4951801;28;20130;-82
2022/08/23 09:15:53;;;;;;;1.88;0.50;;;;;;;;;;4951263;28;20078;-82
2022/08/23 09:18:23;;;;;;;;;;;;;;;;;;4967143;28;20451;-82
2022/08/23 09:20:52;;;;;;;2.97;0.93;;;;;;;;;;4971077;28;20386;-82
2022/08/23 09:23:22;;;;;;;1.05;0.88;;;;;;;;;;4970693;28;20046;-82
2022/08/23 09:25:53;;;;;;;0.50;0.50;;;;;;;;;;4970856;28;20142;-82
2022/08/23 09:28:25;;;;;;;0.40;0.40;;;;;;;;;;4969877;28;20063;-83
2022/08/23 09:30:54;;;;;;;1.88;0.60;;;;;;;;;;4970472;28;20075;-82
2022/08/23 09:33:24;;;;;;;0.47;0.43;;;;;;;;;;4968026;28;20091;-82
2022/08/23 09:36:11;;;;;;;0.50;0.50;;;;;;;;;;4973083;28;20069;-83
2022/08/23 09:38:50;;;;;;;1.20;0.98;;;;;;;;;;4936425;28;20063;-82
2022/08/23 09:41:23;;;;;;;1.55;0.47;;;;;;;;;;4955758;28;20086;-83
2022/08/23 09:43:52;;;;;;;1.13;0.70;;;;;;;;;;4954653;28;20122;-82
2022/08/23 09:46:29;;;;;;;0.32;0.30;;;;;;;;;;4954870;28;20047;-83
2022/08/23 09:48:59;;;;;;;0.98;0.75;;;;;;;;;;4952409;28;20070;-82
2022/08/23 09:51:31;;;;;;;0.65;0.43;;;;;;;;;;4954728;28;20411;-82
2022/08/23 09:54:07;;;;;;;0.55;0.55;;;;;;;;;;4954686;28;20082;-82
2022/08/23 09:56:38;;;;;;;1.15;0.77;;;;;;;;;;4954841;28;20126;-83
2022/08/23 09:59:21;;;;;;;2.30;0.70;;;;;;;;;;4954754;28;20142;-83
2022/08/23 10:01:54;;;;;;;3.97;0.95;;;;;;;;;;4957393;28;20130;-83
2022/08/23 10:04:24;;;;;;;1.27;0.55;;;;;;;;;;4948793;28;20086;-82
2022/08/23 10:06:53;;;;;;;0.85;0.70;;;;;;;;;;4954569;28;20054;-82
2022/08/23 10:09:26;;;;;;;0.60;0.50;;;;;;;;;;4954335;28;20126;-82
2022/08/23 10:11:56;;;;;;;1.23;0.63;;;;;;;;;;4956329;28;20059;-80
2022/08/23 10:14:26;;;;;;;0.93;0.50;;;;;;;;;;4954934;28;20079;-81
2022/08/23 10:17:04;;;;;;;0.85;0.73;;;;;;;;;;4954343;28;20126;-81
2022/08/23 10:19:39;;;;;;;1.77;0.98;;;;;;;;;;4961014;28;20113;-82
2022/08/23 10:22:14;;;;;;;1.48;0.80;;;;;;;;;;4946490;28;20047;-81
2022/08/23 10:24:45;;;;;;;1.33;0.65;;;;;;;;;;4950609;28;20105;-81
2022/08/23 10:30:12;;;;;;;0.47;0.43;;;;;;;;;;4960914;28;20071;-82
2022/08/23 10:33:01;;;;;;;1.45;0.50;;;;;;;;;;4954217;28;20078;-83
2022/08/23 10:35:36;;;;;;;1.42;0.70;;;;;;;;;;4957413;28;20070;-82
2022/08/23 10:38:19;;;;;;;0.50;0.47;;;;;;;;;;4946356;28;20066;-81
2022/08/23 10:40:52;;;;;;;1.33;0.52;;;;;;;;;;4942940;28;20138;-81
2022/08/23 10:43:25;;;;;;;0.82;0.52;;;;;;;;;;4953947;28;20134;-81
2022/08/23 10:45:54;;;;;;;2.83;0.80;;;;;;;;;;4954259;28;20126;-81
2022/08/23 10:48:30;;;;;;;0.65;0.63;;;;;;;;;;4948846;28;20059;-83
2022/08/23 10:51:02;;;;;;;0.50;0.50;;;;;;;;;;4953760;28;20377;-82
2022/08/23 10:53:45;;;;;;;2.65;0.65;;;;;;;;;;4953628;28;20047;-82
2022/08/23 10:56:18;;;;;;;1.00;0.43;;;;;;;;;;4948410;28;20051;-81
2022/08/23 10:58:50;;;;;;;0.65;0.57;;;;;;;;;;4955883;28;20113;-83
2022/08/23 11:01:21;;;;;;;0.35;0.35;;;;;;;;;;4953880;28;20051;-82
2022/08/23 11:03:57;;;;;;;2.08;0.60;;;;;;;;;;4953335;28;20492;-82
2022/08/23 11:06:25;;;;;;;;;;;;;;;;;;4951821;28;20055;-81
2022/08/23 11:09:04;;;;;;;0.40;0.40;;;;;;;;;;4950233;28;19926;-81
2022/08/23 11:11:42;;;;;;;0.65;0.65;;;;;;;;;;4953360;28;20090;-83
2022/08/23 11:14:13;;;;;;;1.08;0.60;;;;;;;;;;4953358;28;20056;-81
2022/08/23 11:16:46;;;;;;;1.13;0.75;;;;;;;;;;4953279;28;20134;-81
2022/08/23 11:19:35;;;;;;;0.73;0.55;;;;;;;;;;4957956;28;20074;-81
2022/08/23 11:22:13;;;;;;;0.40;0.40;;;;;;;;;;4948064;28;20047;-81
2022/08/23 11:24:53;;;;;;;0.60;0.50;;;;;;;;;;4951116;28;20043;-81
2022/08/23 11:27:32;;;;;;;0.60;0.60;;;;;;;;;;4947030;28;20161;-81
2022/08/23 11:30:15;;;;;;;1.15;0.60;;;;;;;;;;4953572;28;20047;-82
2022/08/23 11:32:46;;;;;;;2.75;0.60;;;;;;;;;;4950639;28;20118;-81
2022/08/23 11:35:34;;;;;;;0.70;0.70;;;;;;;;;;4952695;28;20071;-82
2022/08/23 11:38:03;;;;;;;0.80;0.63;;;;;;;;;;4952837;28;20043;-82
2022/08/23 11:40:55;;;;;;;0.73;0.60;;;;;;;;;;4956310;28;20047;-82
2022/08/23 11:43:27;;;;;;;0.70;0.40;;;;;;;;;;4962280;28;20078;-82
2022/08/23 11:46:13;;;;;;;0.70;0.50;;;;;;;;;;4940516;28;20051;-82
2022/08/23 11:48:49;;;;;;;0.90;0.50;;;;;;;;;;4931571;28;20064;-82
2022/08/23 11:51:26;;;;;;;0.40;0.40;;;;;;;;;;4944629;28;20043;-82
2022/08/23 11:54:11;;;;;;;0.50;0.38;;;;;;;;;;4950566;28;20110;-81
2022/08/23 11:56:51;;;;;;;0.40;0.40;;;;;;;;;;4956446;28;20094;-82
2022/08/23 11:59:30;;;;;;;0.60;0.50;;;;;;;;;;4963934;28;20495;-81
2022/08/23 12:01:59;;;;;;;0.40;0.40;;;;;;;;;;4971861;28;20047;-82
2022/08/23 12:04:32;;;;;;;0.50;0.50;;;;;;;;;;4972972;28;20043;-81
2022/08/23 12:07:05;;;;;;;0.38;0.38;;;;;;;;;;4967609;28;20491;-82
2022/08/23 12:09:50;;;;;;;0.93;0.70;;;;;;;;;;4971980;28;20105;-81
2022/08/23 12:12:19;;;;;;;;;;;;;;;;;;4965403;28;20403;-82
2022/08/23 12:14:53;;;;;;;0.70;0.40;;;;;;;;;;4971963;28;19969;-82
2022/08/23 12:17:40;;;;;;;0.60;0.40;;;;;;;;;;4961314;28;20047;-83
2022/08/23 12:20:15;;;;;;;0.85;0.50;;;;;;;;;;4951920;28;20047;-82
2022/08/23 12:22:57;;;;;;;2.08;0.65;;;;;;;;;;4949127;28;20118;-83
2022/08/23 12:25:25;;;;;;;0.40;0.40;;;;;;;;;;4945532;28;20055;-82
2022/08/23 12:27:57;;;;;;;0.95;0.43;;;;;;;;;;4952673;28;20130;-82
2022/08/23 12:30:27;;;;;;;0.63;0.40;;;;;;;;;;4966345;28;20055;-83
2022/08/23 12:32:58;;;;;;;3.28;0.70;;;;;;;;;;4955443;28;20086;-83
2022/08/23 12:35:33;;;;;;;0.70;0.70;;;;;;;;;;4965562;28;20137;-81
2022/08/23 12:38:06;;;;;;;0.93;0.80;;;;;;;;;;4954604;28;20101;-81
2022/08/23 12:40:36;;;;;;;4.05;0.90;;;;;;;;;;4961056;28;20089;-81
2022/08/23 12:43:10;;;;;;;;;;;;;;;;;;4953459;28;20051;-82
2022/08/23 12:45:47;;;;;;;0.40;0.40;;;;;;;;;;4961003;28;20433;-82
2022/08/23 12:48:18;;;;;;;1.73;0.47;;;;;;;;;;4958190;28;20506;-81
2022/08/23 12:50:52;;;;;;;0.80;0.60;;;;;;;;;;4952402;28;20078;-82
2022/08/23 12:53:21;;;;;;;;;;;;;;;;;;4949989;28;20083;-83
2022/08/23 12:55:51;;;;;;;0.65;0.43;;;;;;;;;;4958381;28;19930;-81
2022/08/23 12:58:29;;;;;;;0.60;0.60;;;;;;;;;;4967358;28;20113;-81
2022/08/23 13:01:02;;;;;;;0.80;0.60;;;;;;;;;;4970159;28;20050;-83
2022/08/23 13:03:40;;;;;;;2.55;0.70;;;;;;;;;;4971110;28;20078;-82
2022/08/23 13:06:14;;;;;;;0.50;0.45;;;;;;;;;;4970454;28;20086;-83
2022/08/23 13:08:45;;;;;;;0.50;0.50;;;;;;;;;;4968038;28;20078;-81
2022/08/23 13:11:14;;;;;;;0.65;0.52;;;;;;;;;;4971029;28;20179;-82
2022/08/23 13:13:44;;;;;;;0.77;0.57;;;;;;;;;;4970683;28;20448;-81
2022/08/23 13:16:26;;;;;;;0.60;0.60;;;;;;;;;;4979791;28;20134;-82
2022/08/23 13:18:55;;;;;;;0.60;0.43;;;;;;;;;;4955740;28;20058;-82
2022/08/23 13:21:33;;;;;;;1.25;0.70;;;;;;;;;;4970977;28;20047;-81
2022/08/23 13:24:22;;;;;;;0.75;0.63;;;;;;;;;;4982164;28;20524;-82
2022/08/23 13:27:11;;;;;;;0.70;0.68;;;;;;;;;;4971868;28;20050;-82
2022/08/23 13:29:49;;;;;;;1.20;0.57;;;;;;;;;;4972559;28;20554;-82
2022/08/23 13:32:28;;;;;;;0.90;0.60;;;;;;;;;;4972384;28;20046;-82
2022/08/23 13:35:21;;;;;;;1.48;0.77;;;;;;;;;;4953758;28;20403;-81
2022/08/23 13:37:53;;;;;;;2.63;0.90;;;;;;;;;;4969717;28;20161;-81
2022/08/23 13:40:24;;;;;;;0.85;0.63;;;;;;;;;;4970576;28;20086;-82
2022/08/23 13:42:54;;;;;;;0.77;0.47;;;;;;;;;;4970459;28;20047;-82
2022/08/23 13:45:25;;;;;;;1.02;0.73;;;;;;;;;;4970167;28;20053;-82
2022/08/23 13:47:56;;;;;;;0.40;0.40;;;;;;;;;;4970930;28;20538;-81
2022/08/23 13:50:26;;;;;;;0.47;0.47;;;;;;;;;;4971207;28;20050;-81
2022/08/23 13:52:57;;;;;;;1.10;0.57;;;;;;;;;;4970132;28;20057;-81
2022/08/23 13:55:44;;;;;;;1.52;0.65;;;;;;;;;;4962091;28;20047;-83
2022/08/23 13:58:15;;;;;;;0.60;0.50;;;;;;;;;;4969841;28;20082;-82
2022/08/23 14:00:43;;;;;;;0.50;0.50;;;;;;;;;;4970813;28;20051;-81
2022/08/23 14:03:22;;;;;;;0.90;0.70;;;;;;;;;;4970494;28;20074;-83
2022/08/23 14:05:51;;;;;;;0.70;0.50;;;;;;;;;;4970312;28;20058;-82
2022/08/23 14:08:21;;;;;;;1.30;0.95;;;;;;;;;;4969959;28;20082;-81
2022/08/23 14:10:50;;;;;;;0.60;0.40;;;;;;;;;;4970939;28;20109;-82
2022/08/23 14:13:20;;;;;;;0.60;0.50;;;;;;;;;;4966981;28;20098;-82
2022/08/23 14:15:48;;;;;;;0.60;0.50;;;;;;;;;;4969988;28;20062;-82
2022/08/23 14:18:37;;;;;;;0.45;0.45;;;;;;;;;;4951331;28;20059;-82
2022/08/23 14:21:26;;;;;;;1.88;0.70;;;;;;;;;;4967319;28;20264;-84
2022/08/23 14:23:56;;;;;;;0.73;0.52;;;;;;;;;;4973426;28;20051;-82
2022/08/23 14:26:25;;;;;;;2.38;0.60;;;;;;;;;;4973321;28;20083;-81
2022/08/23 14:28:53;;;;;;;2.10;0.80;;;;;;;;;;4974244;28;20043;-82
2022/08/23 14:31:22;;;;;;;0.40;0.40;;;;;;;;;;4973918;28;20058;-81
2022/08/23 14:33:51;;;;;;;2.95;0.70;;;;;;;;;;4974083;28;20101;-81
2022/08/23 14:36:20;;;;;;;0.40;0.40;;;;;;;;;;4973109;28;20109;-82
2022/08/23 14:38:52;;;;;;;0.77;0.52;;;;;;;;;;4970918;28;20491;-81
2022/08/23 14:41:22;;;;;;;0.70;0.70;;;;;;;;;;4972507;28;20102;-82
2022/08/23 14:43:51;;;;;;;0.85;0.70;;;;;;;;;;4972771;28;20137;-81
2022/08/23 14:46:20;;;;;;;0.68;0.63;;;;;;;;;;4973522;28;20479;-81
2022/08/23 14:48:49;;;;;;;0.35;0.35;;;;;;;;;;4973360;28;20097;-82
2022/08/23 14:51:22;;;;;;;1.17;0.50;;;;;;;;;;4973717;28;20051;-81
2022/08/23 14:53:51;;;;;;;1.17;0.63;;;;;;;;;;4969705;28;20085;-81
2022/08/23 14:56:20;;;;;;;0.98;0.50;;;;;;;;;;4972237;28;20130;-81
2022/08/23 14:58:51;;;;;;;1.60;0.50;;;;;;;;;;4967520;28;20050;-81
2022/08/23 15:01:20;;;;;;;1.85;1.17;;;;;;;;;;4973138;28;20144;-83
2022/08/23 15:03:49;;;;;;;2.13;0.52;;;;;;;;;;4973166;28;20539;-82
2022/08/23 15:06:18;;;;;;;0.65;0.57;;;;;;;;;;4972335;28;20042;-82
2022/08/23 15:08:47;;;;;;;1.58;0.70;;;;;;;;;;4968413;28;20129;-82
2022/08/23 15:11:15;;;;;;;3.72;0.52;;;;;;;;;;4973072;28;20131;-81
2022/08/23 15:14:05;;;;;;;0.63;0.50;;;;;;;;;;4971713;28;20043;-81
2022/08/23 15:16:33;;;;;;;0.85;0.50;;;;;;;;;;4972857;28;20773;-82
2022/08/23 15:19:02;;;;;;;1.23;0.80;;;;;;;;;;4973435;28;20057;-82
2022/08/23 15:21:30;;;;;;;0.90;0.70;;;;;;;;;;4969833;28;20498;-81
2022/08/23 15:23:59;;;;;;;1.52;0.50;;;;;;;;;;4972846;28;20499;-81